Time;durP1;ratioP1;P1;durP2;ratioP2;P2;SDS_P1;SDS_P2;PMS_P1;PMS_P2;Temp;Humidity;BMP_temperature;BMP_pressure;BME280_temperature;BME280_humidity;BME280_pressure;Samples;Min_cycle;Max_cycle;Signal;HPM_P1;HPM_P2
2023/06/21 00:00:32;;;;;;;23.30;21.10;;;;;;;23.21;52.55;100202.52;108768;1281;22007;-83
2023/06/21 00:04:03;;;;;;;22.70;20.30;;;;;;;23.15;52.86;100201.27;108947;1281;22002;-83
2023/06/21 00:07:07;;;;;;;22.60;20.50;;;;;;;23.18;52.96;100206.04;108940;1280;21997;-83
2023/06/21 00:09:54;;;;;;;23.30;20.80;;;;;;;23.08;52.89;100204.63;108692;1286;23015;-85
2023/06/21 00:12:40;;;;;;;22.20;20.40;;;;;;;23.00;53.19;100209.27;108747;1280;22973;-85
2023/06/21 00:15:54;;;;;;;22.80;20.80;;;;;;;22.96;53.64;100217.57;109075;1280;22025;-84
2023/06/21 00:19:02;;;;;;;24.00;21.90;;;;;;;22.94;53.81;100212.64;108443;1289;22062;-83
2023/06/21 00:22:05;;;;;;;23.60;21.30;;;;;;;22.95;53.86;100209.14;108485;1284;23673;-83
2023/06/21 00:25:34;;;;;;;21.60;19.70;;;;;;;22.93;53.93;100217.66;108451;1290;22063;-83
2023/06/21 00:28:39;;;;;;;23.20;20.10;;;;;;;22.89;54.19;100217.48;108819;1277;22013;-85
2023/06/21 00:31:39;;;;;;;23.40;21.20;;;;;;;22.86;54.37;100214.98;109216;1277;23631;-83
2023/06/21 00:34:47;;;;;;;21.70;19.70;;;;;;;22.86;54.40;100213.85;109093;1277;22044;-86
2023/06/21 00:37:32;;;;;;;20.10;18.50;;;;;;;22.92;54.36;100214.98;109649;1270;21983;-84
2023/06/21 00:40:21;;;;;;;;;;;;;;;22.96;54.24;100215.60;105206;1270;6047215;-84
2023/06/21 00:43:24;;;;;;;22.30;20.40;;;;;;;22.90;54.46;100213.87;109898;1268;21973;-83
2023/06/21 00:46:22;;;;;;;22.10;19.90;;;;;;;22.95;54.45;100206.14;110063;1264;21984;-83
2023/06/21 00:49:23;;;;;;;24.60;22.00;;;;;;;23.00;54.34;100214.35;109895;1267;22164;-85
2023/06/21 00:52:26;;;;;;;22.80;20.70;;;;;;;23.05;54.17;100218.23;110140;1268;23612;-83
2023/06/21 00:55:28;;;;;;;21.60;19.90;;;;;;;23.06;54.22;100219.39;109844;1268;21993;-84
2023/06/21 00:58:31;;;;;;;22.40;20.00;;;;;;;23.10;54.42;100224.88;109647;1272;22059;-83
2023/06/21 01:01:56;;;;;;;23.10;20.70;;;;;;;23.14;54.58;100226.91;109618;1272;22000;-85
2023/06/21 01:04:59;;;;;;;25.20;21.90;;;;;;;23.21;55.07;100245.46;109592;1272;23734;-86
2023/06/21 01:08:11;;;;;;;;;;;;;;;;;;;;;
2023/06/21 01:11:48;;;;;;;24.90;22.40;;;;;;;23.20;56.08;100269.15;109587;1272;22057;-84
2023/06/21 01:15:06;;;;;;;25.80;23.30;;;;;;;22.85;57.16;100258.00;109306;1276;23235;-84
2023/06/21 01:17:52;;;;;;;27.70;24.80;;;;;;;22.40;58.35;100259.34;109124;1276;22207;-84
2023/06/21 01:21:01;;;;;;;30.20;27.30;;;;;;;21.97;60.05;100267.52;109138;1274;22003;-86
2023/06/21 01:24:17;;;;;;;27.80;25.30;;;;;;;21.67;61.85;100267.29;108757;1283;23179;-83
2023/06/21 01:27:52;;;;;;;;;;;;;;;;;;;;;
2023/06/21 01:30:38;;;;;;;31.30;28.20;;;;;;;21.28;64.21;100272.69;108619;1286;21865;-85
2023/06/21 01:33:18;;;;;;;29.60;27.20;;;;;;;21.14;64.84;100275.63;108343;1290;24381;-84
2023/06/21 01:36:20;;;;;;;29.00;26.70;;;;;;;21.02;65.52;100276.08;108256;1290;23684;-84
2023/06/21 01:38:59;;;;;;;31.80;28.80;;;;;;;20.89;66.16;100274.48;108190;1286;22014;-83
2023/06/21 01:41:38;;;;;;;31.40;28.60;;;;;;;20.79;66.72;100277.02;108443;1286;22604;-85
2023/06/21 01:44:48;;;;;;;31.80;29.00;;;;;;;20.77;67.30;100284.98;108702;1280;22013;-83
2023/06/21 01:47:55;;;;;;;;;;;;;;;;;;;;;
2023/06/21 01:50:42;;;;;;;31.40;28.90;;;;;;;20.71;68.34;100278.30;108637;1275;22204;-82
2023/06/21 01:53:21;;;;;;;31.60;28.90;;;;;;;20.69;68.53;100278.91;109142;1275;21991;-83
2023/06/21 01:56:18;;;;;;;27.60;25.40;;;;;;;20.66;68.95;100271.05;109127;1275;23640;-83
2023/06/21 01:58:59;;;;;;;30.00;27.40;;;;;;;20.66;69.32;100264.35;109201;1275;23619;-85
2023/06/21 02:02:08;;;;;;;27.30;25.00;;;;;;;20.65;69.24;100261.06;109204;1275;21990;-86
2023/06/21 02:05:17;;;;;;;24.60;22.60;;;;;;;20.64;69.86;100259.04;108924;1278;23046;-87
2023/06/21 02:08:17;;;;;;;27.00;24.90;;;;;;;20.65;70.40;100260.92;109128;1272;23787;-83
2023/06/21 02:11:03;;;;;;;24.10;22.10;;;;;;;20.69;70.36;100258.95;109370;1272;21988;-85
2023/06/21 02:14:08;;;;;;;22.40;20.30;;;;;;;20.74;70.43;100255.39;109038;1278;21864;-85
2023/06/21 02:17:25;;;;;;;20.40;18.50;;;;;;;20.79;70.72;100256.70;109136;1278;23160;-85
2023/06/21 02:20:22;;;;;;;19.50;17.80;;;;;;;20.88;70.67;100258.49;108785;1281;23721;-83
2023/06/21 02:23:16;;;;;;;21.70;19.70;;;;;;;20.95;70.40;100257.86;108563;1283;22063;-83
2023/06/21 02:26:03;;;;;;;22.10;19.80;;;;;;;21.00;70.53;100262.94;108239;1290;23865;-85
2023/06/21 02:29:08;;;;;;;;;;;;;;;21.09;70.41;100272.35;108282;1290;21968;-84
2023/06/21 02:32:07;;;;;;;19.70;18.00;;;;;;;21.09;70.82;100279.20;108355;1284;22189;-85
2023/06/21 02:35:04;;;;;;;22.40;20.40;;;;;;;21.15;70.79;100275.34;108614;1284;23646;-84
2023/06/21 02:38:12;;;;;;;24.00;21.90;;;;;;;21.22;70.87;100278.14;108366;1285;22029;-85
2023/06/21 02:41:13;;;;;;;23.00;21.20;;;;;;;21.28;70.98;100282.08;108696;1282;22463;-86
2023/06/21 02:44:35;;;;;;;23.00;21.10;;;;;;;21.30;70.84;100280.78;108845;1275;22038;-85
2023/06/21 02:47:29;;;;;;;25.60;23.30;;;;;;;21.32;70.79;100281.52;108873;1281;23724;-84
2023/06/21 02:50:18;;;;;;;24.30;22.20;;;;;;;21.32;70.67;100275.54;108850;1276;21991;-84
2023/06/21 02:53:03;;;;;;;24.10;22.10;;;;;;;21.36;70.63;100282.98;108909;1279;22009;-85
2023/06/21 02:55:57;;;;;;;24.70;22.50;;;;;;;21.36;70.64;100282.78;108868;1279;22021;-85
2023/06/21 02:59:13;;;;;;;;;;;;;;;;;;;;;
2023/06/21 03:01:59;;;;;;;22.50;20.50;;;;;;;21.31;70.58;100281.23;108859;1283;23626;-82
2023/06/21 03:05:30;;;;;;;20.60;18.80;;;;;;;21.30;70.61;100278.89;108654;1282;22011;-83
2023/06/21 03:08:33;;;;;;;21.10;19.20;;;;;;;21.32;70.74;100280.13;108645;1277;22017;-85
2023/06/21 03:11:45;;;;;;;22.20;20.10;;;;;;;21.33;70.60;100278.60;108989;1277;22070;-84
2023/06/21 03:14:42;;;;;;;21.50;19.70;;;;;;;21.33;70.39;100275.41;109245;1275;23681;-84
2023/06/21 03:17:43;;;;;;;23.40;21.40;;;;;;;21.30;70.49;100264.55;108869;1275;21984;-84
2023/06/21 03:20:28;;;;;;;23.00;20.90;;;;;;;21.27;70.80;100254.68;109051;1275;22453;-83
2023/06/21 03:23:22;;;;;;;26.90;24.70;;;;;;;21.27;70.72;100243.38;109024;1279;21957;-82
2023/06/21 03:26:16;;;;;;;26.80;24.60;;;;;;;21.29;70.78;100238.64;108650;1281;22018;-83
2023/06/21 03:28:54;;;;;;;22.90;21.00;;;;;;;21.30;70.77;100237.80;108902;1275;22510;-82
2023/06/21 03:31:42;;;;;;;22.00;19.60;;;;;;;21.34;70.70;100237.13;108795;1281;23641;-84
2023/06/21 03:34:39;;;;;;;;;;;;;;;21.36;70.60;100231.64;108786;1281;22000;-84
2023/06/21 03:37:40;;;;;;;17.30;16.00;;;;;;;21.31;70.70;100229.80;109462;1275;23784;-83
2023/06/21 03:40:36;;;;;;;18.10;16.70;;;;;;;21.34;70.57;100231.23;109316;1271;23615;-83
2023/06/21 03:43:30;;;;;;;19.00;17.50;;;;;;;21.38;70.03;100238.88;109561;1266;23041;-81
2023/06/21 03:46:10;;;;;;;;;;;;;;;21.39;69.70;100243.39;110309;1266;22126;-81
2023/06/21 03:49:00;;;;;;;20.00;18.40;;;;;;;21.32;69.86;100244.17;110697;1264;21989;-83
2023/06/21 03:51:50;;;;;;;;;;;;;;;21.31;69.67;100244.08;110421;1266;22775;-83
2023/06/21 03:54:42;;;;;;;21.00;19.20;;;;;;;21.22;69.96;100255.15;109806;1270;22212;-83
2023/06/21 03:57:24;;;;;;;22.20;20.40;;;;;;;21.25;69.93;100258.39;109593;1270;22021;-83
2023/06/21 04:00:18;;;;;;;23.30;21.30;;;;;;;21.34;69.72;100255.00;109677;1270;21998;-82
2023/06/21 04:03:06;;;;;;;24.00;21.70;;;;;;;21.35;69.44;100256.80;109857;1269;23729;-83
2023/06/21 04:05:46;;;;;;;22.60;20.60;;;;;;;21.37;69.23;100265.02;109747;1270;22858;-84
2023/06/21 04:08:47;;;;;;;24.10;22.20;;;;;;;21.39;69.16;100273.84;109658;1267;23735;-82
2023/06/21 04:12:02;;;;;;;26.00;23.60;;;;;;;21.41;69.12;100277.71;109767;1270;21971;-83
2023/06/21 04:15:16;;;;;;;24.70;22.80;;;;;;;21.46;69.02;100287.79;110193;1266;23713;-85
2023/06/21 04:17:59;;;;;;;25.50;23.00;;;;;;;21.53;68.82;100285.05;110497;1266;22010;-84
2023/06/21 04:20:48;;;;;;;24.30;22.40;;;;;;;21.65;68.78;100281.45;110343;1266;21980;-83
2023/06/21 04:23:20;;;;;;;23.20;21.40;;;;;;;21.79;68.50;100278.45;110036;1266;22017;-84
2023/06/21 04:26:08;;;;;;;25.20;22.60;;;;;;;21.91;68.19;100276.86;110271;1266;21975;-83
2023/06/21 04:29:04;;;;;;;25.30;23.00;;;;;;;22.03;67.89;100277.47;109644;1271;21976;-82
2023/06/21 04:31:41;;;;;;;24.40;22.40;;;;;;;22.17;67.57;100277.27;109434;1271;21987;-81
2023/06/21 04:34:54;;;;;;;23.70;21.80;;;;;;;22.29;67.15;100275.91;109682;1267;21972;-82
2023/06/21 04:37:54;;;;;;;;;;;;;;;;;;;;;
2023/06/21 04:40:40;;;;;;;22.60;20.60;;;;;;;22.50;66.10;100275.27;109563;1271;22003;-80
2023/06/21 04:43:35;;;;;;;22.50;20.70;;;;;;;22.61;65.70;100279.31;109487;1272;22006;-83
2023/06/21 04:46:23;;;;;;;23.70;21.70;;;;;;;22.71;65.10;100282.08;109483;1272;22006;-86
2023/06/21 04:49:32;;;;;;;20.70;19.20;;;;;;;22.81;64.42;100278.77;109621;1271;24303;-83
2023/06/21 04:52:42;;;;;;;24.00;21.90;;;;;;;22.89;63.94;100269.88;109513;1272;22403;-82
2023/06/21 04:55:33;;;;;;;;;;;;;;;22.95;63.61;100272.69;109652;1263;22015;-82
2023/06/21 04:58:27;;;;;;;22.00;20.20;;;;;;;22.93;63.77;100273.92;109467;1271;23113;-80
2023/06/21 05:01:24;;;;;;;21.80;19.90;;;;;;;22.98;63.52;100268.17;109189;1276;23369;-82
2023/06/21 05:04:31;;;;;;;21.70;19.90;;;;;;;23.01;63.11;100261.48;109189;1276;23724;-82
2023/06/21 05:07:15;;;;;;;22.10;20.00;;;;;;;23.05;62.92;100253.70;109550;1271;22004;-82
2023/06/21 05:09:59;;;;;;;22.20;20.10;;;;;;;23.11;62.78;100251.02;109290;1275;22072;-81
2023/06/21 05:12:44;;;;;;;;;;;;;;;23.20;63.01;100245.27;109066;1271;21991;-81
2023/06/21 05:15:16;;;;;;;21.30;19.20;;;;;;;23.25;63.15;100242.95;108972;1278;22770;-82
2023/06/21 05:17:59;;;;;;;22.60;20.00;;;;;;;23.44;63.13;100234.95;108800;1278;21992;-82
2023/06/21 05:20:50;;;;;;;21.00;19.20;;;;;;;23.70;62.30;100232.21;108791;1280;23722;-83
2023/06/21 05:23:39;;;;;;;21.30;19.30;;;;;;;23.87;60.60;100230.59;108820;1279;22008;-83
2023/06/21 05:26:44;;;;;;;20.40;18.50;;;;;;;23.92;59.15;100221.64;108598;1284;23721;-84
2023/06/21 05:29:24;;;;;;;20.30;18.50;;;;;;;23.97;58.89;100222.91;108732;1284;22027;-84
2023/06/21 05:32:17;;;;;;;19.80;18.10;;;;;;;24.07;58.57;100231.70;108826;1282;23886;-81
2023/06/21 05:35:36;;;;;;;20.50;18.70;;;;;;;24.19;58.11;100233.54;109014;1277;22021;-85
2023/06/21 05:38:15;;;;;;;18.50;16.90;;;;;;;24.34;57.44;100239.96;108656;1281;22458;-84
2023/06/21 05:41:05;;;;;;;18.10;16.30;;;;;;;24.50;56.50;100243.90;108754;1281;21992;-79
2023/06/21 05:44:11;;;;;;;18.40;16.70;;;;;;;24.66;55.99;100250.38;108994;1275;23656;-80
2023/06/21 05:46:46;;;;;;;18.90;17.20;;;;;;;24.93;55.30;100263.66;109194;1274;22011;-81
2023/06/21 05:49:55;;;;;;;17.90;16.40;;;;;;;25.19;54.56;100263.39;109099;1275;23145;-80
2023/06/21 05:52:55;;;;;;;16.90;15.60;;;;;;;25.33;53.45;100262.22;109176;1270;22048;-77
2023/06/21 05:56:06;;;;;;;17.70;16.00;;;;;;;25.37;53.06;100269.27;108932;1278;21990;-79
2023/06/21 05:59:04;;;;;;;17.90;16.30;;;;;;;25.42;52.86;100272.33;108782;1282;21994;-80
2023/06/21 06:02:17;;;;;;;17.70;16.00;;;;;;;25.48;52.89;100264.83;108508;1282;23682;-78
2023/06/21 06:05:01;;;;;;;19.10;17.10;;;;;;;25.50;52.85;100263.50;108694;1282;22447;-82
2023/06/21 06:07:47;;;;;;;19.00;16.80;;;;;;;25.49;52.50;100262.52;108454;1286;22024;-77
2023/06/21 06:10:36;;;;;;;16.80;15.10;;;;;;;25.43;52.60;100259.28;108419;1287;21999;-79
2023/06/21 06:13:28;;;;;;;;;;;;;;;;;;;;;
2023/06/21 06:16:24;;;;;;;18.20;15.40;;;;;;;25.01;52.56;100246.31;108797;1278;23722;-81
2023/06/21 06:19:13;;;;;;;17.30;15.90;;;;;;;24.84;53.03;100236.16;108602;1283;22336;-80
2023/06/21 06:22:03;;;;;;;22.40;16.50;;;;;;;24.69;53.55;100232.41;108616;1286;22000;-80
2023/06/21 06:24:49;;;;;;;18.00;15.90;;;;;;;24.56;53.80;100230.71;108686;1283;23060;-80
2023/06/21 06:27:38;;;;;;;18.00;16.20;;;;;;;24.47;54.13;100234.38;109002;1282;22000;-80
2023/06/21 06:30:36;;;;;;;18.30;16.40;;;;;;;24.42;54.31;100235.98;108796;1276;22014;-79
2023/06/21 06:33:22;;;;;;;18.40;16.70;;;;;;;24.38;54.37;100241.31;109062;1263;21982;-78
2023/06/21 06:36:06;;;;;;;17.70;16.30;;;;;;;24.31;54.62;100242.67;108820;1274;22002;-80
2023/06/21 06:39:02;;;;;;;18.30;16.60;;;;;;;24.25;54.76;100248.06;108632;1279;22045;-82
2023/06/21 06:41:49;;;;;;;19.50;17.80;;;;;;;24.21;54.94;100245.70;109098;1279;21989;-80
2023/06/21 06:44:43;;;;;;;19.70;17.60;;;;;;;24.16;55.19;100239.53;108954;1279;21988;-78
2023/06/21 06:47:29;;;;;;;20.40;18.40;;;;;;;24.13;55.31;100239.33;108890;1279;22002;-79
2023/06/21 06:50:15;;;;;;;19.00;17.50;;;;;;;24.14;55.32;100244.34;109092;1279;22019;-81
2023/06/21 06:52:54;;;;;;;19.80;18.20;;;;;;;24.16;55.45;100253.29;109004;1279;21999;-79
2023/06/21 06:55:44;;;;;;;20.10;18.30;;;;;;;24.18;55.53;100261.05;109554;1273;22400;-79
2023/06/21 06:58:38;;;;;;;;;;;;;;;;;;;;;
2023/06/21 07:01:25;;;;;;;20.30;18.50;;;;;;;24.30;55.69;100274.06;109048;1280;22054;-78
2023/06/21 07:04:01;;;;;;;20.60;18.80;;;;;;;24.41;55.61;100283.42;109043;1276;22470;-78
2023/06/21 07:06:42;;;;;;;23.20;21.10;;;;;;;24.51;55.60;100281.52;109058;1276;23670;-79
2023/06/21 07:09:16;;;;;;;22.50;19.70;;;;;;;24.62;55.64;100282.45;109068;1270;22765;-79
2023/06/21 07:12:05;;;;;;;20.50;18.80;;;;;;;24.69;55.57;100291.56;108787;1279;23650;-79
2023/06/21 07:14:44;;;;;;;22.20;20.30;;;;;;;24.70;55.48;100299.05;108701;1280;22001;-79
2023/06/21 07:17:35;;;;;;;19.80;18.00;;;;;;;24.73;55.44;100317.06;108925;1278;22453;-77
2023/06/21 07:20:51;;;;;;;21.40;19.30;;;;;;;24.77;55.30;100324.00;108916;1277;22008;-79
2023/06/21 07:23:29;;;;;;;19.70;18.00;;;;;;;24.81;55.24;100322.52;109078;1277;22010;-80
2023/06/21 07:26:13;;;;;;;21.50;19.70;;;;;;;24.84;54.92;100327.42;109119;1277;22046;-79
2023/06/21 07:29:16;;;;;;;;;;;;;;;;;;;;;
2023/06/21 07:32:39;;;;;;;24.20;20.00;;;;;;;24.89;54.99;100343.63;109567;1262;22254;-78
2023/06/21 07:35:18;;;;;;;;;;;;;;;24.94;54.74;100349.02;109783;1267;21964;-79
2023/06/21 07:38:06;;;;;;;20.10;18.20;;;;;;;24.89;54.69;100349.36;109179;1272;21998;-80
2023/06/21 07:40:40;;;;;;;20.60;18.60;;;;;;;24.90;54.64;100348.00;109176;1272;21947;-79
2023/06/21 07:43:42;;;;;;;25.10;19.90;;;;;;;24.92;54.70;100347.98;108883;1276;22456;-79
2023/06/21 07:46:51;;;;;;;26.80;21.00;;;;;;;24.95;54.73;100345.23;108658;1282;22259;-78
2023/06/21 07:50:05;;;;;;;24.50;22.00;;;;;;;24.97;55.11;100339.13;108586;1283;23397;-78
2023/06/21 07:53:24;;;;;;;25.20;20.90;;;;;;;24.97;55.23;100335.36;108695;1284;22109;-79
2023/06/21 07:56:51;;;;;;;28.60;21.40;;;;;;;24.94;55.50;100338.33;108057;1291;23076;-79
2023/06/21 08:00:04;;;;;;;;;;;;;;;;;;;;;
2023/06/21 08:03:01;;;;;;;25.00;22.80;;;;;;;24.90;56.03;100343.58;108465;1285;22459;-78
2023/06/21 08:06:02;;;;;;;23.70;21.40;;;;;;;24.88;56.02;100341.63;108583;1283;23801;-78
2023/06/21 08:09:52;;;;;;;26.10;21.50;;;;;;;24.84;56.08;100342.70;108544;1279;22050;-80
2023/06/21 08:12:42;;;;;;;28.40;25.40;;;;;;;24.76;56.62;100337.98;108529;1282;22029;-82
2023/06/21 08:15:54;;;;;;;33.00;24.70;;;;;;;24.70;57.16;100335.35;108367;1286;22004;-82
2023/06/21 08:19:03;;;;;;;29.10;25.10;;;;;;;24.70;57.37;100340.88;108567;1286;22444;-83
2023/06/21 08:22:22;;;;;;;27.40;24.60;;;;;;;24.70;57.70;100351.06;108722;1284;22003;-81
2023/06/21 08:25:20;;;;;;;26.80;24.30;;;;;;;24.67;58.24;100351.66;108777;1278;21993;-76
2023/06/21 08:28:05;;;;;;;27.50;25.20;;;;;;;24.62;58.71;100351.79;108632;1278;22005;-77
2023/06/21 08:30:44;;;;;;;28.50;25.50;;;;;;;24.53;59.40;100358.21;108938;1278;22020;-77
2023/06/21 08:33:47;;;;;;;26.80;24.40;;;;;;;24.41;59.89;100365.52;108928;1278;22281;-77
2023/06/21 08:36:42;;;;;;;25.60;23.40;;;;;;;24.27;60.67;100365.66;108969;1278;23054;-77
2023/06/21 08:39:18;;;;;;;31.20;28.10;;;;;;;24.18;61.25;100363.66;108965;1273;22147;-77
2023/06/21 08:41:51;;;;;;;32.90;29.90;;;;;;;24.12;61.94;100360.61;109071;1273;23836;-77
2023/06/21 08:44:25;;;;;;;37.80;29.70;;;;;;;24.04;62.50;100360.53;109023;1274;24323;-77
2023/06/21 08:47:38;;;;;;;;;;;;;;;;;;;;;
2023/06/21 08:50:53;;;;;;;;;;;;;;;;;;;;;
2023/06/21 08:53:57;;;;;;;36.40;33.30;;;;;;;23.59;65.33;100360.39;108891;1276;22530;-78
2023/06/21 08:57:03;;;;;;;38.70;34.80;;;;;;;23.46;66.03;100356.08;108662;1280;22620;-79
2023/06/21 09:00:23;;;;;;;;;;;;;;;;;;;;;
2023/06/21 09:03:32;;;;;;;39.60;35.90;;;;;;;23.23;67.42;100348.64;108935;1278;23008;-77
2023/06/21 09:06:49;;;;;;;34.90;31.70;;;;;;;23.08;68.01;100346.38;108941;1278;22212;-77
2023/06/21 09:09:33;;;;;;;38.50;34.70;;;;;;;23.00;68.32;100348.02;108839;1277;23056;-76
2023/06/21 09:12:28;;;;;;;39.00;35.30;;;;;;;22.89;68.60;100351.46;108985;1273;21957;-77
2023/06/21 09:15:08;;;;;;;38.00;34.60;;;;;;;22.77;69.05;100369.70;109135;1272;21981;-76
2023/06/21 09:18:21;;;;;;;37.20;34.10;;;;;;;22.74;69.59;100416.65;109230;1261;24293;-78
2023/06/21 09:21:10;;;;;;;39.10;35.60;;;;;;;22.70;70.04;100447.51;109378;1272;21982;-77
2023/06/21 09:24:17;;;;;;;36.80;33.50;;;;;;;22.68;70.30;100448.40;109236;1273;22080;-78
2023/06/21 09:27:32;;;;;;;39.90;36.20;;;;;;;22.67;70.32;100453.60;109437;1272;21992;-78
2023/06/21 09:30:39;;;;;;;37.00;33.80;;;;;;;22.68;70.72;100452.52;109599;1272;24319;-78
2023/06/21 09:33:38;;;;;;;36.80;33.50;;;;;;;22.70;70.77;100454.13;108897;1276;22002;-78
2023/06/21 09:36:45;;;;;;;;;;;;;;;;;;;;;
2023/06/21 09:40:27;;;;;;;37.30;33.80;;;;;;;22.76;70.91;100451.60;108789;1277;22021;-78
2023/06/21 09:43:30;;;;;;;36.40;33.30;;;;;;;22.76;70.95;100444.86;108878;1273;22912;-78
2023/06/21 09:46:36;;;;;;;33.40;30.70;;;;;;;22.80;70.91;100439.93;108785;1277;23809;-78
2023/06/21 09:49:34;;;;;;;35.50;32.20;;;;;;;22.83;71.01;100434.73;108812;1277;21996;-78
2023/06/21 09:52:34;;;;;;;34.90;31.90;;;;;;;22.85;70.92;100432.40;108983;1277;23064;-78
2023/06/21 09:56:05;;;;;;;35.10;32.20;;;;;;;22.85;70.91;100428.82;109421;1272;24332;-77
2023/06/21 09:58:56;;;;;;;35.20;32.40;;;;;;;22.89;70.91;100428.11;108876;1277;22763;-78
2023/06/21 10:01:54;;;;;;;34.50;31.70;;;;;;;22.94;70.92;100422.15;108618;1280;21988;-78
2023/06/21 10:05:23;;;;;;;34.50;31.70;;;;;;;22.97;70.92;100426.67;108618;1280;22131;-78
2023/06/21 10:08:51;;;;;;;34.00;31.30;;;;;;;22.97;71.03;100427.36;108768;1267;23763;-79
2023/06/21 10:11:54;;;;;;;30.10;27.40;;;;;;;23.01;71.11;100424.21;108964;1276;21989;-79
2023/06/21 10:14:45;;;;;;;30.00;27.70;;;;;;;23.06;70.98;100431.09;109255;1276;22282;-80
2023/06/21 10:17:57;;;;;;;32.90;29.90;;;;;;;23.09;71.03;100424.95;109298;1271;22043;-79
2023/06/21 10:21:12;;;;;;;32.60;29.80;;;;;;;23.16;71.08;100421.66;109768;1269;23087;-79
2023/06/21 10:24:15;;;;;;;;;;;;;;;;;;;;;
2023/06/21 10:27:59;;;;;;;;;;;;;;;;;;;;;
2023/06/21 10:31:14;;;;;;;31.20;28.60;;;;;;;23.40;70.86;100434.40;108990;1276;21983;-79
2023/06/21 10:34:19;;;;;;;30.70;28.00;;;;;;;23.42;70.38;100437.11;109257;1275;23609;-78
2023/06/21 10:37:24;;;;;;;27.90;25.70;;;;;;;23.42;70.19;100439.92;109273;1276;22984;-78
2023/06/21 10:40:11;;;;;;;32.10;29.50;;;;;;;23.41;70.01;100442.33;109282;1272;23634;-78
2023/06/21 10:43:16;;;;;;;31.70;29.10;;;;;;;23.43;70.02;100435.58;109169;1275;23755;-77
2023/06/21 10:46:05;;;;;;;32.20;29.30;;;;;;;23.45;70.01;100441.46;109130;1275;23058;-77
2023/06/21 10:48:54;;;;;;;31.00;28.40;;;;;;;23.48;69.90;100445.64;109186;1261;23769;-77
2023/06/21 10:52:07;;;;;;;27.70;25.40;;;;;;;23.48;69.65;100443.42;109429;1271;21986;-77
2023/06/21 10:55:01;;;;;;;30.10;27.30;;;;;;;23.45;69.23;100442.52;109035;1275;23612;-77
2023/06/21 10:58:13;;;;;;;31.20;28.60;;;;;;;23.44;69.33;100441.88;108867;1279;23512;-77
2023/06/21 11:01:42;;;;;;;29.60;27.30;;;;;;;23.44;69.55;100448.08;108835;1279;22623;-76
2023/06/21 11:05:27;;;;;;;29.40;27.00;;;;;;;23.40;69.17;100448.83;108590;1279;23760;-82
2023/06/21 11:08:09;;;;;;;31.70;28.90;;;;;;;23.24;69.29;100449.84;109006;1279;22001;-82
2023/06/21 11:10:53;;;;;;;30.00;27.40;;;;;;;23.19;69.57;100446.23;108812;1279;22009;-83
2023/06/21 11:13:40;;;;;;;30.40;27.40;;;;;;;23.08;69.22;100451.30;108952;1277;22049;-83
2023/06/21 11:16:29;;;;;;;32.50;29.80;;;;;;;22.97;69.67;100451.73;108828;1283;22514;-82
2023/06/21 11:19:17;;;;;;;33.60;30.80;;;;;;;22.97;70.16;100451.37;108445;1287;22008;-82
2023/06/21 11:21:51;;;;;;;34.90;31.70;;;;;;;23.01;70.54;100446.88;108566;1281;22008;-82
2023/06/21 11:24:30;;;;;;;35.90;33.10;;;;;;;23.06;70.83;100438.90;108741;1280;22002;-82
2023/06/21 11:27:09;;;;;;;35.20;32.40;;;;;;;23.04;70.79;100434.58;108689;1284;24348;-82
2023/06/21 11:30:09;;;;;;;38.90;35.80;;;;;;;22.99;70.89;100434.86;108804;1280;21999;-82
2023/06/21 11:33:23;;;;;;;37.60;34.20;;;;;;;22.90;71.62;100431.59;108744;1281;23647;-82
2023/06/21 11:36:16;;;;;;;39.10;35.50;;;;;;;22.89;72.19;100423.55;109019;1276;22997;-82
2023/06/21 11:39:19;;;;;;;38.10;34.50;;;;;;;22.95;72.84;100417.30;109498;1272;22467;-82
2023/06/21 11:41:54;;;;;;;34.60;32.00;;;;;;;22.96;72.88;100410.77;109364;1272;23637;-81
2023/06/21 11:44:31;;;;;;;37.90;34.80;;;;;;;22.95;72.85;100415.68;109208;1277;22334;-84
2023/06/21 11:47:16;;;;;;;38.10;35.10;;;;;;;22.92;73.04;100418.98;108771;1284;22001;-82
2023/06/21 11:50:12;;;;;;;;;;;;;;;;;;;;;
2023/06/21 11:54:14;;;;;;;41.80;38.60;;;;;;;22.87;73.53;100421.04;108776;1283;22522;-79
2023/06/21 11:58:12;;;;;;;41.40;37.90;;;;;;;22.92;74.13;100414.36;108619;1277;23065;-81
2023/06/21 12:02:21;;;;;;;39.00;35.60;;;;;;;23.04;74.32;100408.89;107816;1293;22072;-80
2023/06/21 12:06:17;;;;;;;30.70;28.40;;;;;;;23.16;73.99;100401.66;107660;1295;22351;-80
2023/06/21 12:09:38;;;;;;;;;;;;;;;;;;;;;
2023/06/21 12:13:10;;;;;;;32.90;30.30;;;;;;;23.47;73.96;100401.42;107421;1299;22071;-79
2023/06/21 12:16:52;;;;;;;;;;;;;;;;;;;;;
2023/06/21 12:40:08;;;;;;;21.20;19.30;;;;;;;26.22;63.20;100403.84;108466;1285;548177;-77
2023/06/21 12:44:00;;;;;;;;;;;;;;;;;;;;;
2023/06/21 12:47:51;;;;;;;18.80;17.20;;;;;;;25.97;61.42;100386.13;110649;1261;23693;-78
2023/06/21 12:51:03;;;;;;;17.20;15.80;;;;;;;25.80;62.11;100386.99;110693;1261;22376;-78
2023/06/21 12:54:47;;;;;;;;;;;;;;;;;;;;;
2023/06/21 12:57:51;;;;;;;17.20;15.70;;;;;;;25.68;62.91;100390.27;110208;1267;21997;-77
2023/06/21 13:01:08;;;;;;;14.20;12.90;;;;;;;25.80;63.18;100382.67;109833;1270;23622;-80
2023/06/21 13:04:45;;;;;;;14.80;13.60;;;;;;;25.86;62.76;100384.42;110105;1269;21982;-79
2023/06/21 13:07:19;;;;;;;12.30;11.30;;;;;;;25.93;62.43;100388.51;109755;1270;23733;-79
2023/06/21 13:10:13;;;;;;;12.80;11.80;;;;;;;26.00;61.96;100386.59;109468;1269;22933;-78
2023/06/21 13:13:13;;;;;;;14.40;13.30;;;;;;;26.07;61.30;100388.50;109084;1274;21991;-81
2023/06/21 13:16:14;;;;;;;;;;;;;;;26.11;61.27;100385.98;109766;1270;22484;-80
2023/06/21 13:19:17;;;;;;;11.90;11.00;;;;;;;26.13;61.87;100386.30;109849;1268;22001;-79
2023/06/21 13:21:57;;;;;;;13.60;11.10;;;;;;;26.23;61.29;100390.80;110103;1268;21973;-82
2023/06/21 13:24:30;;;;;;;12.30;11.20;;;;;;;26.34;60.82;100388.81;110349;1268;24955;-80
2023/06/21 13:27:24;;;;;;;13.50;12.20;;;;;;;26.43;60.62;100386.05;109573;1268;24328;-78
2023/06/21 13:30:05;;;;;;;12.60;11.30;;;;;;;26.52;60.33;100386.05;109647;1267;21981;-78
2023/06/21 13:32:58;;;;;;;13.00;11.90;;;;;;;26.60;60.05;100389.80;109354;1273;22348;-79
2023/06/21 13:36:11;;;;;;;11.50;10.50;;;;;;;26.69;59.24;100381.93;109595;1272;23682;-78
2023/06/21 13:39:11;;;;;;;11.40;10.40;;;;;;;26.82;58.81;100380.61;109069;1273;23749;-78
2023/06/21 13:41:54;;;;;;;11.80;10.70;;;;;;;26.91;58.38;100382.17;108957;1276;22913;-79
2023/06/21 13:45:42;;;;;;;11.50;10.20;;;;;;;26.96;57.71;100380.34;108956;1277;21996;-77
2023/06/21 13:48:54;;;;;;;11.40;10.50;;;;;;;26.98;57.34;100384.89;108931;1277;23023;-77
2023/06/21 13:51:53;;;;;;;11.90;10.70;;;;;;;27.10;56.95;100386.73;109446;1266;21991;-77
2023/06/21 13:55:05;;;;;;;12.10;10.80;;;;;;;27.14;56.85;100381.08;110342;1260;22134;-78
2023/06/21 13:57:52;;;;;;;;;;;;;;;;;;;;;
2023/06/21 14:00:45;;;;;;;13.50;12.20;;;;;;;27.41;56.42;100380.70;111034;1257;21953;-76
2023/06/21 14:08:16;;;;;;;12.40;11.00;;;;;;;27.52;55.31;100365.19;110603;1263;22213;-76
2023/06/21 14:11:24;;;;;;;13.30;12.00;;;;;;;27.59;54.91;100358.19;110443;1264;22910;-78
2023/06/21 14:14:23;;;;;;;11.70;10.80;;;;;;;27.68;54.88;100347.35;110345;1264;21984;-78
2023/06/21 14:17:46;;;;;;;;;;;;;;;;;;;;;
2023/06/21 14:20:48;;;;;;;12.20;10.30;;;;;;;27.84;53.86;100329.52;109724;1262;22317;-79
2023/06/21 14:23:54;;;;;;;9.70;8.80;;;;;;;27.92;53.14;100321.55;109447;1270;21987;-79
2023/06/21 14:27:06;;;;;;;10.30;9.20;;;;;;;28.00;52.59;100317.91;109100;1274;21991;-78
2023/06/21 14:30:30;;;;;;;10.40;9.40;;;;;;;28.06;52.01;100313.56;109085;1275;21982;-75
2023/06/21 14:33:28;;;;;;;11.30;9.90;;;;;;;28.12;51.66;100306.73;109155;1275;23064;-75